Time;durP1;ratioP1;P1;durP2;ratioP2;P2;SDS_P1;SDS_P2;PMS_P1;PMS_P2;Temp;Humidity;BMP_temperature;BMP_pressure;BME280_temperature;BME280_humidity;BME280_pressure;Samples;Min_cycle;Max_cycle;Signal;HPM_P1;HPM_P2
2023/07/14 00:01:53;;;;;;;17.88;8.00;;;13.60;99.90;;;;;;5029411;28;20534;-80
2023/07/14 00:04:31;;;;;;;10.75;6.60;;;13.60;99.90;;;;;;5018167;28;20025;-80
2023/07/14 00:06:57;;;;;;;13.52;5.75;;;13.50;99.90;;;;;;5010711;28;20034;-80
2023/07/14 00:09:26;;;;;;;10.15;6.15;;;13.50;99.90;;;;;;5009371;28;20022;-81
2023/07/14 00:11:52;;;;;;;10.82;5.43;;;13.50;99.90;;;;;;5009468;28;20018;-81
2023/07/14 00:14:18;;;;;;;8.23;5.88;;;13.40;99.90;;;;;;5010737;28;20498;-81
2023/07/14 00:16:44;;;;;;;10.60;6.28;;;13.40;99.90;;;;;;5010753;28;20026;-81
2023/07/14 00:19:15;;;;;;;10.82;6.38;;;13.40;99.90;;;;;;5010520;28;20030;-81
2023/07/14 00:21:42;;;;;;;19.10;8.98;;;13.40;99.90;;;;;;5010541;28;20158;-81
2023/07/14 00:24:12;;;;;;;14.18;8.70;;;13.30;99.90;;;;;;5010439;28;20018;-81
2023/07/14 00:26:40;;;;;;;14.85;9.02;;;13.30;99.90;;;;;;5009138;28;20030;-81
2023/07/14 00:29:30;;;;;;;8.68;5.60;;;13.20;99.90;;;;;;5010369;28;20026;-81
2023/07/14 00:31:57;;;;;;;10.40;4.93;;;13.20;99.90;;;;;;5010569;28;20022;-81
2023/07/14 00:34:23;;;;;;;11.43;4.93;;;13.10;99.90;;;;;;5010284;28;20167;-81
2023/07/14 00:36:48;;;;;;;11.52;5.95;;;13.10;99.90;;;;;;5010382;28;20105;-81
2023/07/14 00:39:14;;;;;;;16.92;7.53;;;13.20;99.90;;;;;;5009122;28;20435;-81
2023/07/14 00:41:39;;;;;;;20.85;10.20;;;13.20;99.90;;;;;;5009138;28;20108;-81
2023/07/14 00:44:05;;;;;;;23.80;9.55;;;13.20;99.90;;;;;;5010236;28;20028;-80
2023/07/14 00:46:33;;;;;;;45.72;8.77;;;13.20;99.90;;;;;;5008986;28;20053;-81
2023/07/14 00:49:04;;;;;;;23.67;8.65;;;13.10;99.90;;;;;;5010111;28;20037;-82
2023/07/14 00:51:34;;;;;;;27.90;9.73;;;13.10;99.90;;;;;;5010195;28;20433;-81
2023/07/14 00:53:59;;;;;;;35.38;9.32;;;13.10;99.90;;;;;;5008692;28;20056;-81
2023/07/14 00:56:44;;;;;;;35.63;9.45;;;13.10;99.90;;;;;;5008993;28;20480;-81
2023/07/14 00:59:33;;;;;;;57.63;10.73;;;13.20;99.90;;;;;;5011441;28;20026;-81
2023/07/14 01:02:19;;;;;;;52.78;11.88;;;13.20;99.90;;;;;;5012208;28;20033;-80
2023/07/14 01:04:52;;;;;;;38.90;10.40;;;13.20;99.90;;;;;;5013238;28;20109;-80
2023/07/14 01:07:22;;;;;;;56.72;11.15;;;13.30;99.90;;;;;;5012118;28;20030;-82
2023/07/14 01:09:51;;;;;;;43.35;10.57;;;13.30;99.90;;;;;;5013140;28;20018;-81
2023/07/14 01:12:21;;;;;;;41.83;10.38;;;13.30;99.90;;;;;;5013262;28;20467;-81
2023/07/14 01:14:50;;;;;;;27.65;9.93;;;13.30;99.90;;;;;;5013221;28;20033;-81
2023/07/14 01:17:16;;;;;;;14.90;8.13;;;13.30;99.90;;;;;;5011890;28;20022;-81
2023/07/14 01:19:50;;;;;;;18.10;7.40;;;13.30;99.90;;;;;;5013188;28;20048;-82
2023/07/14 01:22:47;;;;;;;25.85;7.10;;;13.20;99.90;;;;;;5012019;28;20018;-81
2023/07/14 01:25:32;;;;;;;17.63;6.35;;;13.20;99.90;;;;;;5011760;28;20121;-81
2023/07/14 01:27:59;;;;;;;94.47;10.90;;;13.10;99.90;;;;;;5011763;28;20104;-81
2023/07/14 01:30:25;;;;;;;16.92;8.27;;;13.00;99.90;;;;;;5011664;28;20159;-81
2023/07/14 01:32:51;;;;;;;21.30;7.65;;;13.00;99.90;;;;;;5012936;28;20033;-81
2023/07/14 01:35:20;;;;;;;16.23;6.57;;;12.90;99.90;;;;;;5011626;28;20017;-80
2023/07/14 01:37:45;;;;;;;18.73;6.50;;;12.90;99.90;;;;;;5011568;28;20467;-81
2023/07/14 01:40:15;;;;;;;24.35;8.48;;;12.90;99.90;;;;;;5011650;28;20086;-81
2023/07/14 01:43:07;;;;;;;12.60;6.45;;;12.90;99.90;;;;;;5012859;28;20022;-81
2023/07/14 01:45:48;;;;;;;8.25;5.78;;;12.90;99.90;;;;;;5012496;28;20073;-81
2023/07/14 01:48:18;;;;;;;17.77;7.75;;;12.90;99.90;;;;;;5011556;28;20025;-82
2023/07/14 01:50:57;;;;;;;17.70;7.22;;;12.90;99.90;;;;;;5011870;28;20026;-81
2023/07/14 01:53:32;;;;;;;12.40;7.40;;;12.90;99.90;;;;;;5011299;28;20033;-81
2023/07/14 01:56:01;;;;;;;44.17;11.73;;;12.90;99.90;;;;;;5012182;28;20046;-81
2023/07/14 01:58:41;;;;;;;17.10;10.93;;;12.90;99.90;;;;;;5012565;28;20026;-81
2023/07/14 02:01:10;;;;;;;20.48;8.23;;;12.80;99.90;;;;;;5011553;28;20028;-81
2023/07/14 02:03:40;;;;;;;18.40;8.73;;;12.80;99.90;;;;;;5012349;28;20033;-81
2023/07/14 02:06:06;;;;;;;24.48;8.73;;;12.80;99.90;;;;;;5012475;28;20033;-81
2023/07/14 02:08:33;;;;;;;15.38;8.27;;;12.70;99.90;;;;;;5012480;28;20498;-81
2023/07/14 02:10:59;;;;;;;17.88;9.20;;;12.70;99.90;;;;;;5010655;28;20112;-82
2023/07/14 02:13:25;;;;;;;18.45;8.70;;;12.70;99.90;;;;;;5012470;28;20394;-81
2023/07/14 02:15:52;;;;;;;17.83;9.05;;;12.60;99.90;;;;;;5011070;28;20018;-81
2023/07/14 02:18:23;;;;;;;12.25;7.30;;;12.70;99.90;;;;;;5012292;28;20026;-81
2023/07/14 02:20:49;;;;;;;18.15;8.90;;;12.60;99.90;;;;;;5012338;28;20026;-81
2023/07/14 02:23:20;;;;;;;28.67;8.20;;;12.60;99.90;;;;;;5012193;28;20030;-81
2023/07/14 02:25:58;;;;;;;61.20;11.48;;;12.60;99.90;;;;;;5012216;28;20030;-81
2023/07/14 02:28:24;;;;;;;18.95;9.20;;;12.60;99.90;;;;;;5011092;28;20028;-81
2023/07/14 02:30:59;;;;;;;14.75;7.63;;;12.60;99.90;;;;;;5010782;28;20475;-81
2023/07/14 02:33:29;;;;;;;49.55;9.85;;;12.60;99.90;;;;;;5011970;28;20034;-82
2023/07/14 02:36:22;;;;;;;17.08;8.02;;;12.60;99.90;;;;;;5011224;28;20120;-81
2023/07/14 02:38:47;;;;;;;11.85;6.90;;;12.60;99.90;;;;;;5012103;28;20105;-81
2023/07/14 02:41:31;;;;;;;21.33;8.88;;;12.60;99.90;;;;;;5011904;28;20172;-81
2023/07/14 02:44:02;;;;;;;42.60;9.55;;;12.60;99.90;;;;;;5010146;28;20030;-81
2023/07/14 02:46:50;;;;;;;14.37;7.53;;;12.60;99.90;;;;;;5011737;28;20083;-81
2023/07/14 02:49:16;;;;;;;17.35;9.93;;;12.60;99.90;;;;;;5011989;28;20022;-81
2023/07/14 02:51:42;;;;;;;32.50;11.88;;;12.60;99.90;;;;;;5011893;28;20018;-82
2023/07/14 02:54:08;;;;;;;39.65;10.27;;;12.60;99.90;;;;;;5010290;28;20053;-81
2023/07/14 02:56:33;;;;;;;31.88;10.10;;;12.60;99.90;;;;;;5012426;28;20037;-81
2023/07/14 02:59:00;;;;;;;32.45;10.82;;;12.60;99.90;;;;;;5010003;28;20018;-82
2023/07/14 03:01:27;;;;;;;26.88;11.00;;;12.70;99.90;;;;;;5019888;28;20018;-80
2023/07/14 03:03:53;;;;;;;27.02;10.38;;;12.70;99.90;;;;;;5029926;28;20030;-80
2023/07/14 03:06:20;;;;;;;43.08;12.63;;;12.80;99.90;;;;;;5029345;28;20040;-80
2023/07/14 03:08:46;;;;;;;37.97;14.88;;;12.70;99.90;;;;;;5028702;28;20070;-81
2023/07/14 03:11:12;;;;;;;54.92;16.50;;;12.80;99.90;;;;;;5028339;28;20014;-80
2023/07/14 03:13:37;;;;;;;48.13;14.15;;;12.80;99.90;;;;;;5029443;28;20022;-81
2023/07/14 03:16:03;;;;;;;53.13;13.32;;;12.70;99.90;;;;;;5029448;28;20025;-81
2023/07/14 03:18:30;;;;;;;52.10;11.43;;;12.70;99.90;;;;;;5029117;28;20108;-81
2023/07/14 03:20:57;;;;;;;25.88;11.13;;;12.70;99.90;;;;;;5029137;28;20018;-82
2023/07/14 03:23:22;;;;;;;47.83;11.45;;;12.70;99.90;;;;;;5026914;28;20427;-81
2023/07/14 03:25:58;;;;;;;35.78;11.05;;;12.70;99.90;;;;;;5030307;28;20169;-81
2023/07/14 03:28:24;;;;;;;22.08;10.43;;;12.70;99.90;;;;;;5031118;28;20022;-81
2023/07/14 03:30:49;;;;;;;24.92;11.40;;;12.70;99.90;;;;;;5031182;28;20025;-81
2023/07/14 03:33:15;;;;;;;25.02;11.32;;;12.70;99.90;;;;;;5031094;28;20029;-81
2023/07/14 03:35:41;;;;;;;25.08;10.90;;;12.60;99.90;;;;;;5030951;28;20026;-81
2023/07/14 03:38:07;;;;;;;35.72;12.43;;;12.60;99.90;;;;;;5029842;28;20025;-81
2023/07/14 03:40:33;;;;;;;29.85;11.35;;;12.70;99.90;;;;;;5029633;28;20026;-81
2023/07/14 03:43:00;;;;;;;42.90;11.57;;;12.70;99.90;;;;;;5030894;28;20025;-81
2023/07/14 03:45:26;;;;;;;56.45;12.27;;;12.70;99.90;;;;;;5030590;28;20088;-80
2023/07/14 03:47:52;;;;;;;58.33;14.48;;;12.80;99.90;;;;;;5031137;28;20045;-81
2023/07/14 03:50:17;;;;;;;20.27;11.32;;;12.70;99.90;;;;;;5029584;28;20025;-81
2023/07/14 03:52:43;;;;;;;27.95;12.20;;;12.80;99.90;;;;;;5029579;28;20040;-81
2023/07/14 03:55:11;;;;;;;15.55;11.13;;;12.90;99.90;;;;;;5029639;28;20057;-81
2023/07/14 03:57:36;;;;;;;19.98;12.13;;;13.00;99.90;;;;;;5029467;28;20506;-81
2023/07/14 04:00:13;;;;;;;23.98;11.38;;;13.20;99.90;;;;;;5030620;28;20025;-81
2023/07/14 04:02:41;;;;;;;27.50;11.30;;;13.30;99.90;;;;;;5029702;28;20044;-81
2023/07/14 04:05:09;;;;;;;45.47;11.52;;;13.30;99.90;;;;;;5029404;28;20026;-81
2023/07/14 04:07:36;;;;;;;16.90;9.40;;;13.30;99.90;;;;;;5029436;28;20029;-82
2023/07/14 04:10:03;;;;;;;34.88;10.90;;;13.40;99.90;;;;;;5030541;28;20101;-81
2023/07/14 04:12:29;;;;;;;20.52;11.98;;;13.50;99.90;;;;;;5029259;28;20133;-81
2023/07/14 04:14:55;;;;;;;38.03;12.85;;;13.50;99.90;;;;;;5030405;28;20025;-82
2023/07/14 04:17:22;;;;;;;18.02;10.77;;;13.60;99.90;;;;;;5030317;28;20414;-81
2023/07/14 04:19:48;;;;;;;24.67;10.73;;;13.60;99.90;;;;;;5029184;28;20026;-82
2023/07/14 04:22:14;;;;;;;25.50;11.60;;;13.70;99.90;;;;;;5029361;28;20025;-82
2023/07/14 04:24:39;;;;;;;18.85;11.30;;;13.70;99.90;;;;;;5030371;28;20025;-82
2023/07/14 04:27:05;;;;;;;22.08;12.27;;;13.80;99.90;;;;;;5029327;28;20030;-81
2023/07/14 04:29:30;;;;;;;19.08;11.75;;;13.90;99.90;;;;;;5030273;28;20475;-81
2023/07/14 04:31:56;;;;;;;19.48;11.50;;;14.00;99.90;;;;;;5030209;28;20037;-81
2023/07/14 04:34:22;;;;;;;24.40;11.75;;;14.10;99.90;;;;;;5030580;28;20027;-81
2023/07/14 04:36:48;;;;;;;17.92;10.45;;;14.10;99.90;;;;;;5033957;28;20390;-81
2023/07/14 04:39:14;;;;;;;18.33;11.75;;;14.20;99.90;;;;;;5033898;28;20109;-81
2023/07/14 04:41:40;;;;;;;27.58;12.52;;;14.30;99.90;;;;;;5033699;28;20049;-82
2023/07/14 04:44:09;;;;;;;24.42;12.30;;;14.30;99.90;;;;;;5032383;28;20021;-82
2023/07/14 04:46:34;;;;;;;25.23;12.02;;;14.30;99.90;;;;;;5032165;28;20529;-82
2023/07/14 04:49:00;;;;;;;30.70;12.57;;;14.30;99.90;;;;;;5032352;28;20032;-82
2023/07/14 04:51:26;;;;;;;20.60;12.27;;;14.30;99.90;;;;;;5032480;28;20049;-81
2023/07/14 04:53:52;;;;;;;33.13;12.20;;;14.30;99.90;;;;;;5032472;28;20050;-81
2023/07/14 04:56:18;;;;;;;26.15;12.15;;;14.30;99.90;;;;;;5034129;28;20424;-81
2023/07/14 04:58:43;;;;;;;23.55;14.02;;;14.40;99.90;;;;;;5032419;28;20478;-82
2023/07/14 05:01:09;;;;;;;36.28;15.40;;;14.50;99.90;;;;;;5032768;28;20028;-81
2023/07/14 05:03:35;;;;;;;23.50;14.68;;;14.60;99.90;;;;;;5033473;28;20033;-81
2023/07/14 05:06:01;;;;;;;34.80;15.68;;;14.70;99.90;;;;;;5033471;28;20029;-82
2023/07/14 05:08:26;;;;;;;26.30;16.85;;;14.80;99.90;;;;;;5033759;28;20494;-82
2023/07/14 05:10:52;;;;;;;26.77;16.58;;;14.90;99.90;;;;;;5032238;28;20082;-82
2023/07/14 05:13:18;;;;;;;36.85;19.42;;;15.00;99.90;;;;;;5032156;28;20025;-81
2023/07/14 05:15:45;;;;;;;29.33;18.67;;;15.20;99.90;;;;;;5031910;28;20053;-82
2023/07/14 05:18:10;;;;;;;54.17;20.95;;;15.40;99.90;;;;;;5033295;28;20017;-81
2023/07/14 05:20:36;;;;;;;74.65;23.42;;;15.50;99.90;;;;;;5031738;28;20017;-81
2023/07/14 05:23:03;;;;;;;47.30;20.15;;;15.60;99.90;;;;;;5031839;28;20078;-81
2023/07/14 05:25:29;;;;;;;58.88;23.45;;;15.70;99.90;;;;;;5032228;28;20038;-81
2023/07/14 05:27:55;;;;;;;83.47;24.08;;;15.80;99.90;;;;;;5017086;28;20034;-78
2023/07/14 05:30:21;;;;;;;44.08;21.42;;;15.70;99.90;;;;;;5012869;28;20030;-79
2023/07/14 05:32:49;;;;;;;64.38;24.90;;;15.70;99.90;;;;;;5011820;28;20372;-80
2023/07/14 05:35:15;;;;;;;38.20;23.52;;;15.80;99.90;;;;;;5011792;28;20057;-80
2023/07/14 05:37:42;;;;;;;58.95;25.48;;;15.90;99.90;;;;;;5011822;28;20037;-80
2023/07/14 05:40:10;;;;;;;53.97;27.15;;;15.90;99.90;;;;;;5016726;28;20022;-81
2023/07/14 05:42:37;;;;;;;59.15;25.88;;;15.90;99.90;;;;;;5031511;28;20389;-79
2023/07/14 05:45:03;;;;;;;52.17;28.63;;;16.00;99.90;;;;;;5031616;28;20026;-80
2023/07/14 05:47:30;;;;;;;45.08;27.35;;;16.10;99.90;;;;;;5031077;28;20032;-82
2023/07/14 05:49:56;;;;;;;51.60;31.27;;;16.20;99.90;;;;;;5030138;28;20021;-83
2023/07/14 05:52:22;;;;;;;51.40;30.45;;;16.20;99.90;;;;;;5031805;28;20045;-83
2023/07/14 05:54:48;;;;;;;51.22;32.60;;;16.30;99.90;;;;;;5031848;28;20045;-81
2023/07/14 05:57:14;;;;;;;51.58;33.78;;;16.50;99.90;;;;;;5030643;28;20029;-80
2023/07/14 05:59:40;;;;;;;53.15;34.92;;;16.60;99.90;;;;;;5030526;28;20055;-80
2023/07/14 06:02:13;;;;;;;48.60;33.92;;;16.70;99.90;;;;;;5024167;28;20053;-83
2023/07/14 06:04:39;;;;;;;49.35;32.72;;;16.90;99.90;;;;;;5011007;28;20374;-82
2023/07/14 06:07:06;;;;;;;52.50;32.58;;;17.20;99.90;;;;;;5009764;28;20042;-83
2023/07/14 06:09:36;;;;;;;41.30;30.75;;;17.30;99.90;;;;;;5011231;28;20044;-83
2023/07/14 06:12:04;;;;;;;40.75;31.30;;;17.50;99.90;;;;;;5010122;28;20020;-82
2023/07/14 06:14:34;;;;;;;39.25;29.55;;;17.60;99.90;;;;;;5009706;28;20444;-82
2023/07/14 06:17:01;;;;;;;42.72;29.85;;;17.80;99.90;;;;;;5010504;28;20022;-83
2023/07/14 06:19:28;;;;;;;44.40;31.15;;;17.90;99.90;;;;;;5010379;28;20542;-82
2023/07/14 06:21:54;;;;;;;42.67;28.90;;;18.00;99.90;;;;;;5007748;28;20018;-82
2023/07/14 06:24:20;;;;;;;43.38;28.52;;;18.30;99.90;;;;;;5008183;28;20067;-83
2023/07/14 06:26:46;;;;;;;33.47;25.60;;;18.40;99.90;;;;;;5009582;28;20082;-82
2023/07/14 06:29:12;;;;;;;34.28;25.48;;;18.60;99.90;;;;;;5009827;28;20479;-82
2023/07/14 06:31:38;;;;;;;41.67;26.50;;;18.70;99.90;;;;;;5011132;28;20463;-83
2023/07/14 06:34:04;;;;;;;32.28;23.25;;;18.80;99.90;;;;;;5012345;28;20030;-83
2023/07/14 06:36:30;;;;;;;36.80;25.73;;;19.00;99.90;;;;;;5012292;28;20022;-82
2023/07/14 06:38:56;;;;;;;29.90;22.67;;;19.10;99.90;;;;;;5010825;28;20067;-83
2023/07/14 06:41:21;;;;;;;29.55;21.02;;;19.10;99.90;;;;;;5010973;28;20026;-82
2023/07/14 06:43:47;;;;;;;21.23;18.17;;;19.10;99.90;;;;;;5012203;28;20057;-83
2023/07/14 06:46:13;;;;;;;19.92;16.50;;;19.20;99.90;;;;;;5010806;28;20032;-83
2023/07/14 06:48:38;;;;;;;22.67;16.52;;;19.20;99.90;;;;;;5010911;28;20478;-83
2023/07/14 06:51:04;;;;;;;21.85;16.10;;;19.40;99.90;;;;;;5010739;28;20026;-82
2023/07/14 06:53:29;;;;;;;16.75;12.77;;;19.70;99.90;;;;;;5010431;28;20108;-83
2023/07/14 06:55:55;;;;;;;13.90;12.50;;;19.90;99.90;;;;;;5012186;28;20029;-82
2023/07/14 06:58:21;;;;;;;17.20;12.32;;;20.10;99.90;;;;;;5011897;28;20030;-83
2023/07/14 07:00:47;;;;;;;14.90;12.27;;;20.20;99.90;;;;;;5012017;28;20067;-83
2023/07/14 07:03:12;;;;;;;13.95;11.75;;;20.40;99.90;;;;;;5010638;28;20018;-84
2023/07/14 07:05:41;;;;;;;16.42;11.07;;;20.40;99.90;;;;;;5010534;28;20028;-83
2023/07/14 07:08:12;;;;;;;11.38;9.60;;;20.50;99.90;;;;;;5010810;28;20113;-83
2023/07/14 07:10:40;;;;;;;10.63;8.82;;;20.70;99.90;;;;;;5010524;28;20026;-82
2023/07/14 07:13:05;;;;;;;12.48;9.80;;;20.90;99.90;;;;;;5011837;28;20022;-82
2023/07/14 07:15:31;;;;;;;9.63;8.60;;;21.10;99.90;;;;;;5010305;28;20030;-82
2023/07/14 07:17:56;;;;;;;10.50;9.48;;;21.00;99.90;;;;;;5011558;28;20061;-82
2023/07/14 07:20:22;;;;;;;10.98;9.88;;;21.10;99.90;;;;;;5010325;28;20478;-83
2023/07/14 07:22:48;;;;;;;12.60;9.55;;;21.20;99.90;;;;;;5011664;28;20527;-82
2023/07/14 07:25:16;;;;;;;9.07;8.15;;;21.50;99.90;;;;;;5010204;28;20056;-83
2023/07/14 07:27:42;;;;;;;11.50;9.40;;;21.60;99.90;;;;;;5011576;28;20013;-82
2023/07/14 07:30:09;;;;;;;10.18;9.18;;;21.80;99.90;;;;;;5011673;28;20090;-83
2023/07/14 07:32:34;;;;;;;11.50;8.02;;;21.90;99.90;;;;;;5011482;28;20402;-82
2023/07/14 07:35:00;;;;;;;8.68;7.80;;;21.90;99.90;;;;;;5010151;28;20112;-82
2023/07/14 07:37:33;;;;;;;8.02;7.32;;;22.00;99.90;;;;;;5011648;28;20189;-82
2023/07/14 07:40:01;;;;;;;10.75;6.90;;;22.10;98.40;;;;;;5010168;28;20394;-83
2023/07/14 07:42:27;;;;;;;10.02;7.45;;;22.40;99.00;;;;;;5011318;28;20479;-82
2023/07/14 07:44:54;;;;;;;6.85;6.15;;;22.30;91.30;;;;;;5011154;28;20079;-82
2023/07/14 07:47:20;;;;;;;7.75;6.15;;;22.20;90.90;;;;;;5010202;28;20026;-83
2023/07/14 07:49:46;;;;;;;6.47;5.18;;;22.30;87.00;;;;;;5010002;28;20085;-82
2023/07/14 07:52:12;;;;;;;6.93;4.60;;;22.30;82.70;;;;;;5010112;28;20470;-83
2023/07/14 07:54:39;;;;;;;5.82;4.90;;;22.30;80.80;;;;;;5009701;28;20155;-82
2023/07/14 07:57:07;;;;;;;5.35;4.82;;;22.50;78.80;;;;;;5011065;28;20108;-83
2023/07/14 07:59:33;;;;;;;5.10;4.30;;;22.80;84.50;;;;;;5010051;28;20022;-83
2023/07/14 08:01:59;;;;;;;4.20;3.83;;;22.80;74.30;;;;;;5011242;28;20395;-83
2023/07/14 08:04:25;;;;;;;5.68;3.53;;;22.80;72.10;;;;;;5010035;28;20030;-83
2023/07/14 08:06:51;;;;;;;5.78;4.22;;;23.00;73.40;;;;;;5011009;28;20041;-83
2023/07/14 08:09:17;;;;;;;4.95;4.22;;;23.10;76.40;;;;;;5010371;28;20022;-82
2023/07/14 08:11:42;;;;;;;6.13;4.07;;;23.40;75.40;;;;;;5011217;28;20028;-83
2023/07/14 08:14:14;;;;;;;3.75;3.17;;;23.50;73.60;;;;;;5009686;28;20026;-82
2023/07/14 08:16:40;;;;;;;4.32;3.67;;;23.60;69.00;;;;;;5009629;28;20060;-82
2023/07/14 08:19:06;;;;;;;5.47;3.22;;;23.70;65.10;;;;;;5009434;28;20436;-82
2023/07/14 08:21:31;;;;;;;9.05;3.53;;;23.60;62.00;;;;;;5009581;28;20861;-83
2023/07/14 08:23:58;;;;;;;3.28;2.67;;;23.70;61.50;;;;;;5009624;28;20071;-82
2023/07/14 08:26:24;;;;;;;4.03;2.50;;;23.60;57.50;;;;;;5010701;28;20069;-83
2023/07/14 08:28:49;;;;;;;4.53;3.47;;;23.60;60.00;;;;;;5009423;28;20057;-83
2023/07/14 08:31:15;;;;;;;4.93;3.25;;;23.80;62.10;;;;;;5010545;28;20022;-82
2023/07/14 08:33:43;;;;;;;6.38;2.50;;;24.10;61.90;;;;;;5009291;28;20082;-82
2023/07/14 08:36:18;;;;;;;4.78;3.28;;;23.90;58.90;;;;;;5010899;28;20387;-82
2023/07/14 08:38:44;;;;;;;5.00;2.88;;;23.90;58.20;;;;;;5009586;28;20452;-82
2023/07/14 08:41:26;;;;;;;6.10;2.70;;;23.90;57.70;;;;;;5009343;28;20022;-82
2023/07/14 08:44:17;;;;;;;4.28;2.70;;;23.90;59.00;;;;;;5010523;28;20033;-82
2023/07/14 08:47:06;;;;;;;3.42;2.83;;;23.80;58.30;;;;;;5009164;28;20046;-83
2023/07/14 08:49:48;;;;;;;4.78;3.20;;;24.00;59.60;;;;;;5009285;28;20100;-82
2023/07/14 08:52:33;;;;;;;4.50;2.97;;;24.20;57.10;;;;;;5010895;28;20046;-83
2023/07/14 08:55:16;;;;;;;4.53;2.72;;;24.30;57.00;;;;;;5009052;28;20103;-82
2023/07/14 08:57:54;;;;;;;2.90;2.60;;;24.20;55.40;;;;;;5009108;28;20032;-82
2023/07/14 09:00:49;;;;;;;4.43;2.33;;;24.20;56.30;;;;;;5010074;28;20046;-82
2023/07/14 09:03:24;;;;;;;5.43;3.30;;;24.10;56.40;;;;;;5010303;28;20415;-82
2023/07/14 09:05:54;;;;;;;4.85;2.65;;;24.30;58.10;;;;;;5010411;28;20041;-82
2023/07/14 09:08:28;;;;;;;3.75;2.42;;;24.60;57.70;;;;;;5010464;28;20026;-82
2023/07/14 09:11:02;;;;;;;3.63;2.33;;;24.50;54.70;;;;;;5010274;28;20104;-82
2023/07/14 09:13:45;;;;;;;3.00;1.85;;;24.40;53.20;;;;;;5010093;28;20022;-82
2023/07/14 09:16:12;;;;;;;2.42;2.10;;;24.30;50.90;;;;;;5008975;28;20034;-82
2023/07/14 09:18:40;;;;;;;2.88;2.00;;;24.50;52.40;;;;;;5009161;28;20026;-82
2023/07/14 09:21:28;;;;;;;4.40;2.03;;;24.50;53.90;;;;;;5010004;28;20417;-82
2023/07/14 09:24:15;;;;;;;4.30;2.40;;;24.70;55.60;;;;;;5012136;28;20053;-82
2023/07/14 09:26:45;;;;;;;2.90;2.13;;;25.00;54.60;;;;;;5010679;28;20030;-83
2023/07/14 09:29:24;;;;;;;4.80;2.35;;;25.00;53.10;;;;;;5011515;28;20064;-82
2023/07/14 09:31:50;;;;;;;2.13;1.95;;;25.20;53.60;;;;;;5010267;28;20579;-82
2023/07/14 09:34:30;;;;;;;4.13;2.35;;;25.10;52.20;;;;;;5012180;28;20026;-82
2023/07/14 09:36:56;;;;;;;3.40;2.42;;;25.10;51.60;;;;;;5010796;28;20539;-82
2023/07/14 09:39:42;;;;;;;3.25;1.95;;;25.30;51.60;;;;;;5013097;28;20115;-82
2023/07/14 09:42:25;;;;;;;3.70;2.08;;;25.30;50.60;;;;;;5011816;28;20063;-82
2023/07/14 09:44:58;;;;;;;2.03;1.85;;;25.30;50.20;;;;;;5013375;28;20421;-82
2023/07/14 09:47:24;;;;;;;3.70;2.33;;;25.50;51.50;;;;;;5012969;28;20505;-82
2023/07/14 09:49:57;;;;;;;2.78;1.60;;;25.60;51.40;;;;;;5011734;28;20042;-82
2023/07/14 09:52:25;;;;;;;2.50;2.20;;;25.60;49.30;;;;;;5011660;28;20064;-82
2023/07/14 09:54:59;;;;;;;4.65;1.90;;;25.70;51.70;;;;;;5011538;28;20053;-83
2023/07/14 09:57:41;;;;;;;3.60;2.13;;;25.70;50.70;;;;;;5011879;28;20471;-82
2023/07/14 10:00:24;;;;;;;2.63;1.80;;;25.90;51.20;;;;;;5011853;28;20025;-82
2023/07/14 10:03:11;;;;;;;5.95;2.00;;;25.80;50.80;;;;;;5011624;28;20451;-83
2023/07/14 10:05:53;;;;;;;2.97;1.50;;;25.70;48.20;;;;;;5012642;28;20426;-81
2023/07/14 10:08:33;;;;;;;2.45;2.22;;;25.50;47.50;;;;;;5013212;28;20078;-82
2023/07/14 10:11:27;;;;;;;3.05;1.75;;;25.60;48.30;;;;;;5011402;28;20022;-83
2023/07/14 10:14:03;;;;;;;1.98;1.50;;;25.70;48.30;;;;;;5012595;28;20030;-81
2023/07/14 10:16:32;;;;;;;3.13;1.83;;;25.90;50.10;;;;;;5011603;28;20026;-82
2023/07/14 10:19:04;;;;;;;1.75;1.65;;;25.90;49.50;;;;;;5011708;28;20030;-82
2023/07/14 10:21:33;;;;;;;3.20;1.95;;;26.00;51.10;;;;;;5011393;28;20049;-81
2023/07/14 10:24:14;;;;;;;1.90;1.80;;;26.10;49.70;;;;;;5012483;28;20026;-82
2023/07/14 10:26:48;;;;;;;3.42;2.13;;;26.00;49.30;;;;;;5011045;28;20068;-81
2023/07/14 10:29:19;;;;;;;3.42;2.08;;;26.10;49.50;;;;;;5011157;28;20025;-81
2023/07/14 10:31:45;;;;;;;4.78;1.80;;;26.00;50.50;;;;;;5012130;28;20429;-82
2023/07/14 10:34:22;;;;;;;2.47;1.75;;;25.90;50.10;;;;;;5011073;28;20033;-82
2023/07/14 10:36:52;;;;;;;3.83;1.85;;;26.20;51.50;;;;;;5011072;28;20053;-81
2023/07/14 10:39:48;;;;;;;5.43;2.40;;;26.10;48.60;;;;;;5012227;28;20057;-82
2023/07/14 10:42:21;;;;;;;2.38;2.17;;;25.90;47.80;;;;;;5012719;28;20057;-81
2023/07/14 10:44:48;;;;;;;2.63;1.75;;;25.90;49.50;;;;;;5011229;28;20498;-81
2023/07/14 10:47:42;;;;;;;2.90;1.83;;;25.80;48.80;;;;;;5010936;28;20495;-81
2023/07/14 10:50:27;;;;;;;3.75;2.15;;;26.10;48.10;;;;;;5012125;28;20030;-82
2023/07/14 10:53:03;;;;;;;2.38;1.75;;;26.20;46.80;;;;;;5010827;28;20026;-82
2023/07/14 10:55:31;;;;;;;1.85;1.50;;;26.20;46.10;;;;;;5012256;28;20410;-81
2023/07/14 10:58:05;;;;;;;2.85;1.67;;;26.00;47.50;;;;;;5011024;28;20026;-82
2023/07/14 11:00:52;;;;;;;3.85;2.00;;;26.20;47.90;;;;;;5010841;28;20112;-81
2023/07/14 11:03:34;;;;;;;2.95;1.60;;;26.60;47.70;;;;;;5012037;28;20055;-81
2023/07/14 11:06:10;;;;;;;3.20;1.83;;;26.80;47.30;;;;;;5010512;28;20033;-81
2023/07/14 11:08:36;;;;;;;2.13;1.45;;;27.00;47.50;;;;;;5010642;28;20033;-81
2023/07/14 11:11:08;;;;;;;2.50;1.60;;;27.10;47.40;;;;;;5010785;28;20018;-81
2023/07/14 11:13:47;;;;;;;2.67;2.00;;;27.10;45.50;;;;;;5010751;28;20522;-81
2023/07/14 11:16:23;;;;;;;3.08;1.73;;;27.30;45.40;;;;;;5011808;28;20498;-82
2023/07/14 11:19:00;;;;;;;2.25;1.45;;;27.30;44.90;;;;;;5010411;28;20121;-81
2023/07/14 11:22:00;;;;;;;4.05;1.85;;;27.10;43.10;;;;;;5011712;28;20026;-81
2023/07/14 11:24:49;;;;;;;2.40;1.88;;;26.90;41.40;;;;;;5032928;28;20117;-81
2023/07/14 11:27:26;;;;;;;2.45;1.83;;;27.20;44.10;;;;;;5011627;28;20098;-81
2023/07/14 11:30:16;;;;;;;1.80;1.50;;;27.30;44.60;;;;;;5010508;28;20091;-81
2023/07/14 11:33:16;;;;;;;3.80;2.13;;;27.40;43.20;;;;;;5011831;28;20105;-81
2023/07/14 11:36:11;;;;;;;3.00;2.35;;;27.60;43.90;;;;;;5010314;28;20109;-81
2023/07/14 11:39:03;;;;;;;4.35;2.25;;;27.60;42.70;;;;;;5012218;28;20038;-81
2023/07/14 11:41:31;;;;;;;4.45;2.00;;;27.60;43.60;;;;;;5010432;28;20026;-82
2023/07/14 11:43:59;;;;;;;2.75;1.90;;;27.90;44.70;;;;;;5010352;28;20123;-81
2023/07/14 11:46:25;;;;;;;2.78;1.83;;;27.80;42.00;;;;;;5009875;28;20045;-81
2023/07/14 11:48:54;;;;;;;5.22;1.90;;;27.80;41.10;;;;;;5009864;28;20022;-81
2023/07/14 11:51:41;;;;;;;2.83;2.17;;;27.90;41.10;;;;;;5010076;28;20033;-81
2023/07/14 11:54:19;;;;;;;3.42;2.10;;;27.80;42.20;;;;;;5011135;28;20517;-81
2023/07/14 11:57:03;;;;;;;4.40;2.25;;;27.70;40.40;;;;;;5011158;28;20095;-81
2023/07/14 11:59:32;;;;;;;5.28;2.40;;;28.00;42.10;;;;;;5011199;28;20615;-81
2023/07/14 12:02:29;;;;;;;5.28;2.60;;;28.10;43.20;;;;;;5009780;28;20467;-82
2023/07/14 12:05:14;;;;;;;5.47;2.72;;;27.80;43.40;;;;;;5011403;28;20050;-81
2023/07/14 12:08:01;;;;;;;3.90;2.72;;;27.40;44.00;;;;;;5018009;28;20179;-81
2023/07/14 12:10:40;;;;;;;4.15;2.47;;;27.40;44.90;;;;;;5010981;28;20026;-80
2023/07/14 12:13:26;;;;;;;3.78;2.80;;;27.00;42.80;;;;;;5009583;28;20041;-81
2023/07/14 12:15:54;;;;;;;4.40;3.15;;;26.90;44.30;;;;;;5009560;28;20484;-82
2023/07/14 12:18:53;;;;;;;1.95;1.70;;;26.80;43.00;;;;;;5009586;28;20447;-80
2023/07/14 12:21:41;;;;;;;5.00;2.78;;;26.90;43.50;;;;;;5010761;28;20475;-81
2023/07/14 12:24:16;;;;;;;5.50;2.97;;;26.90;41.50;;;;;;5009448;28;20108;-81
2023/07/14 12:27:23;;;;;;;7.55;3.33;;;26.50;42.00;;;;;;5010674;28;20098;-81
2023/07/14 12:29:52;;;;;;;2.83;2.42;;;26.40;42.80;;;;;;5009681;28;20506;-80
2023/07/14 12:32:19;;;;;;;5.47;2.53;;;26.40;43.00;;;;;;5009488;28;20588;-80
2023/07/14 12:34:46;;;;;;;4.22;2.60;;;26.50;43.90;;;;;;5009326;28;20091;-81
2023/07/14 12:37:20;;;;;;;4.32;2.20;;;26.70;42.10;;;;;;5009291;28;20056;-80
2023/07/14 12:39:47;;;;;;;7.53;2.95;;;26.90;42.20;;;;;;5010631;28;20033;-80
2023/07/14 12:42:14;;;;;;;6.50;3.25;;;26.60;43.00;;;;;;5009353;28;20033;-81
2023/07/14 12:44:40;;;;;;;4.60;2.83;;;26.30;42.70;;;;;;5010564;28;20034;-81
2023/07/14 12:47:16;;;;;;;5.22;2.70;;;26.30;44.40;;;;;;5010526;28;20064;-80
2023/07/14 12:49:49;;;;;;;4.07;2.45;;;26.00;43.70;;;;;;5009315;28;20109;-80
2023/07/14 12:52:24;;;;;;;;;;;26.10;44.10;;;;;;5009650;28;20017;-81
2023/07/14 12:54:52;;;;;;;2.53;2.33;;;26.20;44.00;;;;;;5011212;28;20330;-80
2023/07/14 12:57:18;;;;;;;3.13;2.40;;;26.10;44.80;;;;;;5012564;28;20096;-81
2023/07/14 12:59:51;;;;;;;5.88;2.58;;;26.40;45.90;;;;;;5012518;28;20030;-81